Emden — 3ERP5 — position and weather

sailwx.info

Track history (hours):
 
Tides and Currents Weather Stations Pressure Air Temp Water Temp Dewpoint Dewpoint Depression Visibility Wind Speed Wind Dir Waves Ship Positions

Emden

Last reported at 2016-Jul-29 23:33 UTC. Time now 2016-Jul-30 11:12 UTC.
Position N 39°11' W 009°51'.

Length 177 m; draft 7.6 m.

Type: Ship. MMSI: 355051000.

Date/timePositionNaut miles runAvg speedWind from/ knotsBaromVisibWave heightAir tempDewpointWater temp
2016-Jul-29 23:33N 39°11' W 009°51'1313.5
2016-Jul-29 22:34N 38°58' W 009°52'1413.6
2016-Jul-29 21:33N 38°44' W 009°51'1313.1
2016-Jul-29 20:34N 38°33' W 009°42'1313.4
2016-Jul-29 19:33N 38°25' W 009°28'1313.3
2016-Jul-29 18:33N 38°20' W 009°13'1312.5
2016-Jul-29 17:33N 38°26' W 008°59'7 1.6
2016-Jul-29 13:22N 38°31' W 008°52'0 0.0
2016-Jul-29 12:31N 38°31' W 008°52'0 0.0
2016-Jul-29 11:34N 38°31' W 008°52'0 0.0
2016-Jul-29 10:27N 38°31' W 008°52'0 0.0
2016-Jul-29 09:33N 38°31' W 008°52'0 0.0
2016-Jul-29 08:33N 38°31' W 008°52'0 0.0
2016-Jul-29 07:33N 38°31' W 008°52'0 0.0
2016-Jul-29 06:33N 38°31' W 008°52'0 0.0
2016-Jul-29 05:33N 38°31' W 008°52'0 0.0
2016-Jul-29 04:27N 38°31' W 008°52'0 0.0
2016-Jul-29 03:33N 38°31' W 008°52'0 0.0
2016-Jul-29 02:33N 38°31' W 008°52'0 0.0
2016-Jul-29 01:33N 38°31' W 008°52'0 0.0
2016-Jul-29 00:33N 38°31' W 008°52'0 0.0
2016-Jul-28 23:33N 38°31' W 008°52'0 0.0
2016-Jul-28 22:33N 38°31' W 008°52'0 0.0
2016-Jul-28 21:33N 38°31' W 008°52'0 0.0
2016-Jul-28 20:30N 38°31' W 008°52'0 0.0
2016-Jul-28 19:30N 38°31' W 008°52'0 0.0
2016-Jul-28 18:33N 38°31' W 008°52'0 0.0
2016-Jul-28 17:33N 38°31' W 008°52'0 0.0
2016-Jul-28 16:33N 38°31' W 008°52'0 0.0
2016-Jul-28 15:33N 38°31' W 008°52'0 0.0
2016-Jul-28 14:33N 38°31' W 008°52'0 0.0
2016-Jul-28 13:33N 38°31' W 008°52'0 0.0
2016-Jul-28 12:30N 38°31' W 008°52'0 0.0
2016-Jul-28 11:33N 38°31' W 008°52'0 0.0
2016-Jul-28 10:15N 38°31' W 008°52'0 0.2
2016-Jul-28 09:34N 38°30' W 008°52'7 7.4
2016-Jul-28 08:33N 38°26' W 008°60'9 8.6
2016-Jul-28 07:33N 38°20' W 009°08'1313.3
2016-Jul-28 06:33N 38°21' W 009°24'1414.1
2016-Jul-28 05:33N 38°26' W 009°41'1413.6
2016-Jul-28 04:33N 38°31' W 009°58'1212.5
2016-Jul-28 03:33N 38°41' W 010°06'1614.4
2016-Jul-28 02:26N 38°57' W 010°07'1414.8
2016-Jul-28 01:30N 39°11' W 010°07'33411.1
2016-Jul-26 19:19N 43°44' W 005°49'1114.7
2016-Jul-26 18:33N 43°43' W 005°34'1514.7
2016-Jul-26 17:33N 43°42' W 005°13'145 3.7
2016-Jul-25 02:23N 46°06' W 005°00'26315.5
2016-Jul-24 09:24N 50°26' W 005°60'1314.9
2016-Jul-24 08:33N 50°39' W 005°58'4414.7
2016-Jul-24 05:32N 51°23' W 005°60'2316.2
2016-Jul-24 04:07N 51°46' W 005°57'1017.2
2016-Jul-24 03:34N 51°56' W 005°55'1717.4
2016-Jul-24 02:34N 52°13' W 005°54'1616.1
2016-Jul-24 01:33N 52°29' W 005°53'65 2.1
2016-Jul-22 18:29N 51°24' W 005°52'2114.8
2016-Jul-22 17:04N 51°03' W 005°52'714.3
2016-Jul-22 16:33N 50°56' W 005°53'1515.1
2016-Jul-22 15:33N 50°41' W 005°53'1515.2
2016-Jul-22 14:33N 50°25' W 005°54'1615.7
2016-Jul-22 13:33N 50°10' W 005°53'2812.3
2016-Jul-22 11:15N 49°50' W 005°21'1116.0
2016-Jul-22 10:32N 49°50' W 005°04'1515.6
2016-Jul-22 09:33N 49°52' W 004°40'1514.8
2016-Jul-22 08:33N 49°54' W 004°18'1414.2
2016-Jul-22 07:34N 49°56' W 003°56'2813.9
2016-Jul-22 05:34N 49°59' W 003°13'1515.2
2016-Jul-22 04:34N 50°02' W 002°50'1817.4
2016-Jul-22 03:32N 50°07' W 002°23'1818.9
2016-Jul-22 02:34N 50°12' W 001°55'1818.4
2016-Jul-22 01:33N 50°17' W 001°28'1716.8
2016-Jul-22 00:34N 50°21' W 001°02'1514.7
2016-Jul-21 23:33N 50°26' W 000°40'1313.1
2016-Jul-21 22:33N 50°28' W 000°20'1312.9
2016-Jul-21 21:33N 50°32' W 000°01'1313.3
2016-Jul-21 20:33N 50°36' E 000°19'1514.8
2016-Jul-21 19:31N 50°42' E 000°42'1616.6
2016-Jul-21 18:33N 50°51' E 001°03'1616.7
2016-Jul-21 17:34N 51°02' E 001°23'1515.0
2016-Jul-21 16:34N 51°11' E 001°41'1413.9
2016-Jul-21 15:34N 51°22' E 001°55'1313.3
2016-Jul-21 14:34N 51°33' E 002°08'1413.6
2016-Jul-21 13:33N 51°43' E 002°22'1414.5
2016-Jul-21 12:33N 51°54' E 002°37'2316.1
2016-Jul-21 11:06N 52°12' E 003°01'916.5
2016-Jul-21 10:33N 52°19' E 003°11'1716.7
2016-Jul-21 09:32N 52°33' E 003°26'1916.5
2016-Jul-21 08:24N 52°48' E 003°45'1315.7
2016-Jul-21 07:33N 52°58' E 003°60'1514.8
2016-Jul-21 06:33N 53°08' E 004°19'1613.8
2016-Jul-21 05:24N 53°21' E 004°32'1113.4
2016-Jul-21 04:33N 53°30' E 004°43'1515.1
2016-Jul-21 03:33N 53°34' E 005°08'1616.2
2016-Jul-21 02:33N 53°40' E 005°34'1615.7
2016-Jul-21 01:34N 53°44' E 005°59'1413.5
2016-Jul-21 00:34N 53°37' E 006°19'1211.8
2016-Jul-20 23:33N 53°35' E 006°38'1413.9
2016-Jul-20 22:34N 53°25' E 006°56'9 9.2
2016-Jul-20 21:34N 53°20' E 007°08'2 1.6
2016-Jul-20 20:33N 53°20' E 007°11'0 0.0
2016-Jul-20 19:33N 53°20' E 007°11'0 0.0
2016-Jul-20 18:33N 53°20' E 007°11'0 0.0
2016-Jul-20 17:33N 53°20' E 007°11'0 0.0
2016-Jul-20 16:33N 53°20' E 007°11'0 0.0
2016-Jul-20 15:30N 53°20' E 007°11'0 0.0
2016-Jul-20 14:33N 53°20' E 007°11'0 0.0
2016-Jul-20 13:33N 53°20' E 007°11'0 0.0
2016-Jul-20 12:33N 53°20' E 007°11'0 0.0
2016-Jul-20 11:33N 53°20' E 007°11'0 0.0
2016-Jul-20 10:27N 53°20' E 007°11'0 0.0
2016-Jul-20 09:33N 53°20' E 007°11'0 0.0
2016-Jul-20 08:27N 53°20' E 007°11'0 0.0
2016-Jul-20 07:33N 53°20' E 007°11'0 0.0
2016-Jul-20 06:33N 53°20' E 007°11'0 0.0
2016-Jul-20 05:30N 53°20' E 007°11'0 0.0
2016-Jul-20 04:33N 53°20' E 007°11'0 0.0
2016-Jul-20 03:33N 53°20' E 007°11'0 0.0
2016-Jul-20 02:33N 53°20' E 007°11'1 0.7
2016-Jul-20 01:33N 53°20' E 007°10'5 4.9
2016-Jul-20 00:33N 53°19' E 007°01'9 8.8
2016-Jul-19 23:33N 53°27' E 006°53'  
Track history (hours):
 
Tides and Currents Weather Stations Pressure Air Temp Water Temp Dewpoint Dewpoint Depression Visibility Wind Speed Wind Dir Waves Ship Positions

Emden

Last reported at 2016-Jul-29 23:33 UTC. Time now 2016-Jul-30 11:12 UTC.
Position N 39°11' W 009°51'.

Length 177 m; draft 7.6 m.

Type: Ship. MMSI: 355051000.

Date/timePositionNaut miles runAvg speedWind from/ knotsBaromVisibWave heightAir tempDewpointWater temp
2016-Jul-29 23:33N 39°11' W 009°51'1313.5
2016-Jul-29 22:34N 38°58' W 009°52'1413.6
2016-Jul-29 21:33N 38°44' W 009°51'1313.1
2016-Jul-29 20:34N 38°33' W 009°42'1313.4
2016-Jul-29 19:33N 38°25' W 009°28'1313.3
2016-Jul-29 18:33N 38°20' W 009°13'1312.5
2016-Jul-29 17:33N 38°26' W 008°59'7 1.6
2016-Jul-29 13:22N 38°31' W 008°52'0 0.0
2016-Jul-29 12:31N 38°31' W 008°52'0 0.0
2016-Jul-29 11:34N 38°31' W 008°52'0 0.0
2016-Jul-29 10:27N 38°31' W 008°52'0 0.0
2016-Jul-29 09:33N 38°31' W 008°52'0 0.0
2016-Jul-29 08:33N 38°31' W 008°52'0 0.0
2016-Jul-29 07:33N 38°31' W 008°52'0 0.0
2016-Jul-29 06:33N 38°31' W 008°52'0 0.0
2016-Jul-29 05:33N 38°31' W 008°52'0 0.0
2016-Jul-29 04:27N 38°31' W 008°52'0 0.0
2016-Jul-29 03:33N 38°31' W 008°52'0 0.0
2016-Jul-29 02:33N 38°31' W 008°52'0 0.0
2016-Jul-29 01:33N 38°31' W 008°52'0 0.0
2016-Jul-29 00:33N 38°31' W 008°52'0 0.0
2016-Jul-28 23:33N 38°31' W 008°52'0 0.0
2016-Jul-28 22:33N 38°31' W 008°52'0 0.0
2016-Jul-28 21:33N 38°31' W 008°52'0 0.0
2016-Jul-28 20:30N 38°31' W 008°52'0 0.0
2016-Jul-28 19:30N 38°31' W 008°52'0 0.0
2016-Jul-28 18:33N 38°31' W 008°52'0 0.0
2016-Jul-28 17:33N 38°31' W 008°52'0 0.0
2016-Jul-28 16:33N 38°31' W 008°52'0 0.0
2016-Jul-28 15:33N 38°31' W 008°52'0 0.0
2016-Jul-28 14:33N 38°31' W 008°52'0 0.0
2016-Jul-28 13:33N 38°31' W 008°52'0 0.0
2016-Jul-28 12:30N 38°31' W 008°52'0 0.0
2016-Jul-28 11:33N 38°31' W 008°52'0 0.0
2016-Jul-28 10:15N 38°31' W 008°52'0 0.2
2016-Jul-28 09:34N 38°30' W 008°52'7 7.4
2016-Jul-28 08:33N 38°26' W 008°60'9 8.6
2016-Jul-28 07:33N 38°20' W 009°08'1313.3
2016-Jul-28 06:33N 38°21' W 009°24'1414.1
2016-Jul-28 05:33N 38°26' W 009°41'1413.6
2016-Jul-28 04:33N 38°31' W 009°58'1212.5
2016-Jul-28 03:33N 38°41' W 010°06'1614.4
2016-Jul-28 02:26N 38°57' W 010°07'1414.8
2016-Jul-28 01:30N 39°11' W 010°07'33411.1
2016-Jul-26 19:19N 43°44' W 005°49'1114.7
2016-Jul-26 18:33N 43°43' W 005°34'1514.7
2016-Jul-26 17:33N 43°42' W 005°13'145 3.7
2016-Jul-25 02:23N 46°06' W 005°00'26315.5
2016-Jul-24 09:24N 50°26' W 005°60'1314.9
2016-Jul-24 08:33N 50°39' W 005°58'4414.7
2016-Jul-24 05:32N 51°23' W 005°60'2316.2
2016-Jul-24 04:07N 51°46' W 005°57'1017.2
2016-Jul-24 03:34N 51°56' W 005°55'1717.4
2016-Jul-24 02:34N 52°13' W 005°54'1616.1
2016-Jul-24 01:33N 52°29' W 005°53'65 2.1
2016-Jul-22 18:29N 51°24' W 005°52'2114.8
2016-Jul-22 17:04N 51°03' W 005°52'714.3
2016-Jul-22 16:33N 50°56' W 005°53'1515.1
2016-Jul-22 15:33N 50°41' W 005°53'1515.2
2016-Jul-22 14:33N 50°25' W 005°54'1615.7
2016-Jul-22 13:33N 50°10' W 005°53'2812.3
2016-Jul-22 11:15N 49°50' W 005°21'1116.0
2016-Jul-22 10:32N 49°50' W 005°04'1515.6
2016-Jul-22 09:33N 49°52' W 004°40'1514.8
2016-Jul-22 08:33N 49°54' W 004°18'1414.2
2016-Jul-22 07:34N 49°56' W 003°56'2813.9
2016-Jul-22 05:34N 49°59' W 003°13'1515.2
2016-Jul-22 04:34N 50°02' W 002°50'1817.4
2016-Jul-22 03:32N 50°07' W 002°23'1818.9
2016-Jul-22 02:34N 50°12' W 001°55'1818.4
2016-Jul-22 01:33N 50°17' W 001°28'1716.8
2016-Jul-22 00:34N 50°21' W 001°02'1514.7
2016-Jul-21 23:33N 50°26' W 000°40'1313.1
2016-Jul-21 22:33N 50°28' W 000°20'1312.9
2016-Jul-21 21:33N 50°32' W 000°01'1313.3
2016-Jul-21 20:33N 50°36' E 000°19'1514.8
2016-Jul-21 19:31N 50°42' E 000°42'1616.6
2016-Jul-21 18:33N 50°51' E 001°03'1616.7
2016-Jul-21 17:34N 51°02' E 001°23'1515.0
2016-Jul-21 16:34N 51°11' E 001°41'1413.9
2016-Jul-21 15:34N 51°22' E 001°55'1313.3
2016-Jul-21 14:34N 51°33' E 002°08'1413.6
2016-Jul-21 13:33N 51°43' E 002°22'1414.5
2016-Jul-21 12:33N 51°54' E 002°37'2316.1
2016-Jul-21 11:06N 52°12' E 003°01'916.5
2016-Jul-21 10:33N 52°19' E 003°11'1716.7
2016-Jul-21 09:32N 52°33' E 003°26'1916.5
2016-Jul-21 08:24N 52°48' E 003°45'1315.7
2016-Jul-21 07:33N 52°58' E 003°60'1514.8
2016-Jul-21 06:33N 53°08' E 004°19'1613.8
2016-Jul-21 05:24N 53°21' E 004°32'1113.4
2016-Jul-21 04:33N 53°30' E 004°43'1515.1
2016-Jul-21 03:33N 53°34' E 005°08'1616.2
2016-Jul-21 02:33N 53°40' E 005°34'1615.7
2016-Jul-21 01:34N 53°44' E 005°59'1413.5
2016-Jul-21 00:34N 53°37' E 006°19'1211.8
2016-Jul-20 23:33N 53°35' E 006°38'1413.9
2016-Jul-20 22:34N 53°25' E 006°56'9 9.2
2016-Jul-20 21:34N 53°20' E 007°08'2 1.6
2016-Jul-20 20:33N 53°20' E 007°11'0 0.0
2016-Jul-20 19:33N 53°20' E 007°11'0 0.0
2016-Jul-20 18:33N 53°20' E 007°11'0 0.0
2016-Jul-20 17:33N 53°20' E 007°11'0 0.0
2016-Jul-20 16:33N 53°20' E 007°11'0 0.0
2016-Jul-20 15:30N 53°20' E 007°11'0 0.0
2016-Jul-20 14:33N 53°20' E 007°11'0 0.0
2016-Jul-20 13:33N 53°20' E 007°11'0 0.0
2016-Jul-20 12:33N 53°20' E 007°11'0 0.0
2016-Jul-20 11:33N 53°20' E 007°11'0 0.0
2016-Jul-20 10:27N 53°20' E 007°11'0 0.0
2016-Jul-20 09:33N 53°20' E 007°11'0 0.0
2016-Jul-20 08:27N 53°20' E 007°11'0 0.0
2016-Jul-20 07:33N 53°20' E 007°11'0 0.0
2016-Jul-20 06:33N 53°20' E 007°11'0 0.0
2016-Jul-20 05:30N 53°20' E 007°11'0 0.0
2016-Jul-20 04:33N 53°20' E 007°11'0 0.0
2016-Jul-20 03:33N 53°20' E 007°11'0 0.0
2016-Jul-20 02:33N 53°20' E 007°11'1 0.7
2016-Jul-20 01:33N 53°20' E 007°10'5 4.9
2016-Jul-20 00:33N 53°19' E 007°01'9 8.8
2016-Jul-19 23:33N 53°27' E 006°53'  

Dump ship's entire track history